sensor_id;sensor_type;location;lat;lon;timestamp;pressure;altitude;pressure_sealevel;temperature;humidity
58739;BME280;44512;53.046;18.604;2023-01-30T00:14:40;101083.47;;;2.08;72.12
58739;BME280;44512;53.046;18.604;2023-01-30T00:25:09;101062.10;;;2.08;72.06
58739;BME280;44512;53.046;18.604;2023-01-30T00:35:42;101038.07;;;2.08;71.93
58739;BME280;44512;53.046;18.604;2023-01-30T00:46:13;101032.73;;;2.08;71.89
58739;BME280;44512;53.046;18.604;2023-01-30T00:56:34;101005.04;;;2.09;71.79
58739;BME280;44512;53.046;18.604;2023-01-30T01:07:02;100991.00;;;2.07;71.92
58739;BME280;44512;53.046;18.604;2023-01-30T01:17:31;100980.84;;;2.01;71.78
58739;BME280;44512;53.046;18.604;2023-01-30T01:28:00;100943.77;;;1.98;71.73
58739;BME280;44512;53.046;18.604;2023-01-30T01:38:28;100911.16;;;1.95;71.69
58739;BME280;44512;53.046;18.604;2023-01-30T01:48:58;100894.30;;;1.94;71.69
58739;BME280;44512;53.046;18.604;2023-01-30T01:59:30;100856.93;;;1.94;71.59
58739;BME280;44512;53.046;18.604;2023-01-30T02:09:53;100821.80;;;1.89;71.61
58739;BME280;44512;53.046;18.604;2023-01-30T02:41:26;100734.45;;;1.81;71.32
58739;BME280;44512;53.046;18.604;2023-01-30T02:51:49;100700.03;;;1.78;71.05
58739;BME280;44512;53.046;18.604;2023-01-30T03:02:25;100694.85;;;1.77;70.94
58739;BME280;44512;53.046;18.604;2023-01-30T03:12:55;100645.97;;;1.76;70.60
58739;BME280;44512;53.046;18.604;2023-01-30T03:23:12;100617.73;;;1.74;70.29
58739;BME280;44512;53.046;18.604;2023-01-30T03:33:41;100626.05;;;1.71;70.09
58739;BME280;44512;53.046;18.604;2023-01-30T03:44:09;100613.39;;;1.73;69.87
58739;BME280;44512;53.046;18.604;2023-01-30T03:54:38;100610.04;;;1.71;69.34
58739;BME280;44512;53.046;18.604;2023-01-30T04:05:06;100571.70;;;1.72;69.30
58739;BME280;44512;53.046;18.604;2023-01-30T04:15:34;100553.01;;;1.72;69.03
58739;BME280;44512;53.046;18.604;2023-01-30T04:26:03;100529.98;;;1.71;68.90
58739;BME280;44512;53.046;18.604;2023-01-30T04:36:31;100494.59;;;1.69;69.24
58739;BME280;44512;53.046;18.604;2023-01-30T04:47:00;100448.84;;;1.64;70.19
58739;BME280;44512;53.046;18.604;2023-01-30T04:57:28;100448.77;;;1.55;70.88
58739;BME280;44512;53.046;18.604;2023-01-30T05:07:56;100421.70;;;1.50;70.95
58739;BME280;44512;53.046;18.604;2023-01-30T05:18:25;100415.26;;;1.43;71.58
58739;BME280;44512;53.046;18.604;2023-01-30T05:28:55;100369.69;;;1.37;72.27
58739;BME280;44512;53.046;18.604;2023-01-30T05:39:22;100365.64;;;1.33;72.52
58739;BME280;44512;53.046;18.604;2023-01-30T05:49:50;100359.76;;;1.29;72.67
58739;BME280;44512;53.046;18.604;2023-01-30T06:00:19;100323.74;;;1.25;72.87
58739;BME280;44512;53.046;18.604;2023-01-30T06:10:47;100310.98;;;1.19;72.99
58739;BME280;44512;53.046;18.604;2023-01-30T06:21:16;100333.02;;;1.21;72.89
58739;BME280;44512;53.046;18.604;2023-01-30T06:31:44;100321.20;;;1.23;72.73
58739;BME280;44512;53.046;18.604;2023-01-30T06:42:12;100288.24;;;1.24;72.25
58739;BME280;44512;53.046;18.604;2023-01-30T06:52:42;100280.09;;;1.26;72.05
58739;BME280;44512;53.046;18.604;2023-01-30T07:03:14;100277.10;;;1.29;71.91
58739;BME280;44512;53.046;18.604;2023-01-30T07:13:38;100241.85;;;1.35;71.96
58739;BME280;44512;53.046;18.604;2023-01-30T07:24:07;100234.53;;;1.37;72.40
58739;BME280;44512;53.046;18.604;2023-01-30T07:34:35;100216.85;;;1.36;73.14
58739;BME280;44512;53.046;18.604;2023-01-30T07:45:03;100199.48;;;1.32;74.25
58739;BME280;44512;53.046;18.604;2023-01-30T07:55:32;100181.81;;;1.31;74.99
58739;BME280;44512;53.046;18.604;2023-01-30T08:06:00;100186.06;;;1.24;75.72
58739;BME280;44512;53.046;18.604;2023-01-30T08:16:28;100186.06;;;1.24;76.19
58739;BME280;44512;53.046;18.604;2023-01-30T08:26:57;100166.45;;;1.25;76.50
58739;BME280;44512;53.046;18.604;2023-01-30T08:37:25;100147.07;;;1.23;76.62
58739;BME280;44512;53.046;18.604;2023-01-30T08:47:58;100164.45;;;1.27;76.96
58739;BME280;44512;53.046;18.604;2023-01-30T08:58:22;100149.82;;;1.31;77.09
58739;BME280;44512;53.046;18.604;2023-01-30T09:08:51;100142.03;;;1.38;77.20
58739;BME280;44512;53.046;18.604;2023-01-30T09:19:19;100131.57;;;1.44;77.22
58739;BME280;44512;53.046;18.604;2023-01-30T09:34:56;100133.30;;;1.53;77.41
58739;BME280;44512;53.046;18.604;2023-01-30T09:55:56;100094.55;;;1.67;77.67
58739;BME280;44512;53.046;18.604;2023-01-30T10:06:21;100098.24;;;1.74;77.65
58739;BME280;44512;53.046;18.604;2023-01-30T10:17:02;100082.46;;;1.81;77.64
58739;BME280;44512;53.046;18.604;2023-01-30T10:27:20;100062.13;;;1.88;77.65
58739;BME280;44512;53.046;18.604;2023-01-30T11:09:12;100026.52;;;2.22;78.12
58739;BME280;44512;53.046;18.604;2023-01-30T11:19:41;100008.69;;;2.30;78.16
58739;BME280;44512;53.046;18.604;2023-01-30T11:30:13;99987.34;;;2.39;78.22
58739;BME280;44512;53.046;18.604;2023-01-30T11:40:38;99991.84;;;2.46;78.33
58739;BME280;44512;53.046;18.604;2023-01-30T11:51:08;99978.16;;;2.57;78.37
58739;BME280;44512;53.046;18.604;2023-01-30T12:01:35;99965.46;;;2.68;78.33
58739;BME280;44512;53.046;18.604;2023-01-30T12:12:27;99933.39;;;2.76;78.28
58739;BME280;44512;53.046;18.604;2023-01-30T12:33:04;99925.16;;;2.94;77.87
58739;BME280;44512;53.046;18.604;2023-01-30T12:54:10;99934.98;;;3.09;77.77
58739;BME280;44512;53.046;18.604;2023-01-30T13:35:54;99918.14;;;3.48;76.45
58739;BME280;44512;53.046;18.604;2023-01-30T13:46:25;99917.44;;;3.54;75.98
58739;BME280;44512;53.046;18.604;2023-01-30T13:56:54;99917.11;;;3.57;75.43
58739;BME280;44512;53.046;18.604;2023-01-30T14:38:41;99939.47;;;3.64;73.76
58739;BME280;44512;53.046;18.604;2023-01-30T14:59:53;99949.85;;;3.59;73.49
58739;BME280;44512;53.046;18.604;2023-01-30T15:41:36;99936.36;;;3.53;74.09
58739;BME280;44512;53.046;18.604;2023-01-30T15:52:03;99939.86;;;3.53;73.89
58739;BME280;44512;53.046;18.604;2023-01-30T16:02:34;99951.73;;;3.51;73.88
58739;BME280;44512;53.046;18.604;2023-01-30T16:12:57;99975.34;;;3.47;74.01
58739;BME280;44512;53.046;18.604;2023-01-30T16:33:53;99985.21;;;3.47;73.81
58739;BME280;44512;53.046;18.604;2023-01-30T16:44:24;100009.80;;;3.42;73.57
58739;BME280;44512;53.046;18.604;2023-01-30T16:54:58;100013.45;;;3.41;73.36
58739;BME280;44512;53.046;18.604;2023-01-30T17:05:21;100011.97;;;3.38;73.30
58739;BME280;44512;53.046;18.604;2023-01-30T17:15:47;100019.99;;;3.38;73.31
58739;BME280;44512;53.046;18.604;2023-01-30T17:26:16;100023.18;;;3.42;73.24
58739;BME280;44512;53.046;18.604;2023-01-30T17:36:44;100031.68;;;3.46;73.31
58739;BME280;44512;53.046;18.604;2023-01-30T17:47:12;100049.57;;;3.53;73.42
58739;BME280;44512;53.046;18.604;2023-01-30T17:57:42;100047.21;;;3.58;73.44
58739;BME280;44512;53.046;18.604;2023-01-30T18:08:09;100062.08;;;3.61;73.51
58739;BME280;44512;53.046;18.604;2023-01-30T18:18:37;100083.98;;;3.64;73.43
58739;BME280;44512;53.046;18.604;2023-01-30T18:29:07;100084.95;;;3.72;73.12
58739;BME280;44512;53.046;18.604;2023-01-30T18:39:34;100087.30;;;3.75;72.85
58739;BME280;44512;53.046;18.604;2023-01-30T18:50:02;100091.32;;;3.71;72.72
58739;BME280;44512;53.046;18.604;2023-01-30T19:00:31;100111.38;;;3.83;72.68
58739;BME280;44512;53.046;18.604;2023-01-30T19:11:06;100115.22;;;3.88;72.53
58739;BME280;44512;53.046;18.604;2023-01-30T19:21:28;100145.14;;;3.92;72.08
58739;BME280;44512;53.046;18.604;2023-01-30T19:31:56;100155.84;;;3.92;71.84
58739;BME280;44512;53.046;18.604;2023-01-30T19:42:25;100177.27;;;3.92;71.61
58739;BME280;44512;53.046;18.604;2023-01-30T19:52:53;100196.19;;;3.90;71.36
58739;BME280;44512;53.046;18.604;2023-01-30T20:03:21;100186.50;;;3.89;71.41
58739;BME280;44512;53.046;18.604;2023-01-30T20:13:50;100196.02;;;3.92;71.45
58739;BME280;44512;53.046;18.604;2023-01-30T20:24:18;100198.54;;;3.94;71.49
58739;BME280;44512;53.046;18.604;2023-01-30T20:34:46;100233.17;;;3.95;71.52
58739;BME280;44512;53.046;18.604;2023-01-30T20:45:15;100226.48;;;3.99;71.59
58739;BME280;44512;53.046;18.604;2023-01-30T20:55:43;100229.48;;;4.04;71.54
58739;BME280;44512;53.046;18.604;2023-01-30T21:06:11;100253.23;;;4.07;71.43
58739;BME280;44512;53.046;18.604;2023-01-30T21:16:41;100258.91;;;4.12;71.41
58739;BME280;44512;53.046;18.604;2023-01-30T21:27:08;100262.75;;;4.18;71.24
58739;BME280;44512;53.046;18.604;2023-01-30T21:37:37;100280.99;;;4.23;71.17
58739;BME280;44512;53.046;18.604;2023-01-30T21:48:05;100275.48;;;4.24;71.19
58739;BME280;44512;53.046;18.604;2023-01-30T21:58:33;100299.25;;;4.27;71.24
58739;BME280;44512;53.046;18.604;2023-01-30T22:09:03;100318.50;;;4.31;71.27
58739;BME280;44512;53.046;18.604;2023-01-30T22:19:30;100340.59;;;4.33;71.13
58739;BME280;44512;53.046;18.604;2023-01-30T22:29:59;100345.95;;;4.33;71.11
58739;BME280;44512;53.046;18.604;2023-01-30T22:40:27;100358.34;;;4.34;70.96
58739;BME280;44512;53.046;18.604;2023-01-30T22:51:05;100368.23;;;4.33;70.76
58739;BME280;44512;53.046;18.604;2023-01-30T23:01:26;100373.76;;;4.32;70.71
58739;BME280;44512;53.046;18.604;2023-01-30T23:11:54;100402.58;;;4.30;70.66
58739;BME280;44512;53.046;18.604;2023-01-30T23:22:21;100416.30;;;4.27;70.45
58739;BME280;44512;53.046;18.604;2023-01-30T23:32:49;100419.99;;;4.26;70.45
58739;BME280;44512;53.046;18.604;2023-01-30T23:43:17;100436.71;;;4.28;70.31
58739;BME280;44512;53.046;18.604;2023-01-30T23:53:46;100437.55;;;4.28;70.27
